Terminal Aerodrome Forecast
Issued by NWS

Home | Current Version | Previous Version | Text Only | Print | Product List | Glossary On
Versions: 1 2 3 4 5 6 7 8 9 10 11 12 13 14 15 16 17 18 19 20 21 22 23 24 25 26 27 28 29 30 31 32 33 34 35 36 37 38 39 40 41 42 43 44 45 46 47 48
000
FTUS45 KSLC 061120
TAFENV
TAF
KENV 061120Z 0612/0712 VRB05KT P6SM SCT090 BKN100
     FM061400 07006KT P6SM SCT050 BKN080
     FM061800 10008KT P6SM VCSH SCT050 BKN080
     FM070300 33007KT P6SM SCT050 BKN080
      AMD LTD TO CLD VIS AND WIND=

USA.gov is the U.S. government's official web portal to all federal, state and local government web resources and services.